Flight Track Log - Related Links

Times and Time Zones

All times are in EDT time to prevent confusion due to time zone crossing. See the LPE2530 flight status page for this flight to view local times or setup timezone preferences in your user account.

Time Position Orientation Groundspeed Altitude Reporting Facility
EDT Latitude Longitude Course Direction KTS MPH feet Rate Location/Type
Tue 06:48:00 AM -9.6136 -76.9787 North  Level Estimated
Tue 06:49:00 AM -9.4932 -76.9719 North  Level Estimated
Tue 06:50:00 AM -9.3728 -76.9652 North  Level Estimated
Tue 06:51:00 AM -9.2523 -76.9585 North  Level Estimated
Tue 06:52:00 AM -9.1319 -76.9518 North  Level Estimated
Tue 06:53:00 AM -9.0114 -76.9451 North  Level Estimated
Tue 06:54:00 AM -8.8909 -76.9384 North  Level Estimated
Tue 06:55:00 AM -8.7704 -76.9317 North  Level Estimated
Tue 06:56:00 AM -8.6500 -76.9250 North  Level Estimated
Tue 06:57:00 AM -8.5295 -76.9183 North  Level Estimated
Tue 06:58:00 AM -8.4090 -76.9116 North  Level Estimated
Tue 06:59:00 AM -8.2886 -76.9049 North  Level Estimated
Tue 07:00:00 AM -8.1681 -76.8982 North  Level Estimated
Tue 07:01:00 AM -8.0476 -76.8915 North  Level Estimated
Tue 07:02:00 AM -7.9271 -76.8849 North  Level Estimated
Tue 07:03:00 AM -7.8067 -76.8782 North  Level Estimated
Tue 07:04:00 AM -7.4877 -76.8606 North  Level Estimated
Tue 07:05:00 AM -7.1687 -76.8429 North  Level Estimated
Tue 07:06:00 AM -6.8498 -76.8254 North  Level Estimated
Tue 07:07:00 AM -6.5308 -76.8078 North  Level Estimated
Tue 07:08:00 AM -6.2118 -76.7903 North  Level Estimated
Tue 07:09:00 AM -5.8928 -76.7727 North  Level Estimated
Tue 07:10:00 AM -5.5739 -76.7552 North  Level Estimated
Tue 07:11:00 AM -5.2549 -76.7377 North  Level Estimated
Tue 07:12:00 AM -4.9359 -76.7203 North  Level Estimated
Tue 07:13:00 AM -4.6170 -76.7028 North  Level Estimated
Tue 07:14:00 AM -4.2980 -76.6854 North  Level Estimated
Tue 07:15:00 AM -3.9790 -76.6680 North  Level Estimated
Tue 07:16:00 AM -3.6601 -76.6506 North  Level Estimated
Tue 07:17:00 AM -3.3411 -76.6332 North  Level Estimated
Tue 07:18:00 AM -3.0221 -76.6158 North  Level Estimated
Tue 07:19:00 AM -2.7032 -76.5984 North  Level Estimated
Tue 07:20:00 AM -2.3842 -76.5811 North  Level Estimated
Tue 07:21:00 AM -2.0652 -76.5637 North  Level Estimated
Tue 07:22:00 AM -1.7462 -76.5464 North  Level Estimated
Tue 07:23:00 AM -1.4273 -76.5290 North  Level Estimated
Tue 07:24:00 AM -1.1083 -76.5117 North  Level Estimated
Tue 07:25:00 AM -0.7893 -76.4944 North  Level Estimated
Tue 07:26:00 AM -0.4703 -76.4770 North  Level Estimated
Tue 07:27:00 AM -0.1514 -76.4597 North  Level Estimated
Tue 07:28:00 AM 0.1676 -76.4424 North  Level Estimated
Tue 07:29:00 AM 0.4866 -76.4250 North  Level Estimated
Tue 07:30:00 AM 0.8056 -76.4077 North  Level Estimated
Tue 07:31:00 AM 1.1246 -76.3904 North  Level Estimated
Tue 07:32:00 AM 1.4435 -76.3730 North  Level Estimated
Tue 07:33:00 AM 1.7625 -76.3557 North  Level Estimated
Tue 07:34:00 AM 2.0815 -76.3383 North  Level Estimated
Tue 07:35:00 AM 2.4004 -76.3210 North  Level Estimated
Tue 07:36:00 AM 2.7194 -76.3036 North  Level Estimated
Tue 07:37:00 AM 3.0384 -76.2863 North  Level Estimated
Tue 07:38:00 AM 3.3574 -76.2689 North  Level Estimated
Tue 07:39:00 AM 3.6763 -76.2515 North  Level Estimated
Tue 07:40:00 AM 3.9972 -76.2340 North  Level Estimated
Tue 07:41:00 AM 4.3181 -76.2165 North  Level Estimated
Tue 07:42:00 AM 4.6390 -76.1989 North  Level Estimated
Tue 07:43:00 AM 4.9599 -76.1814 North  Level Estimated
Tue 07:44:00 AM 5.2808 -76.1638 North  Level Estimated
Tue 07:45:00 AM 5.6017 -76.1462 North  Level Estimated
Tue 07:46:00 AM 5.9225 -76.1286 North  Level Estimated
Tue 07:47:00 AM 6.2430 -76.1110 North  Level Estimated
Tue 07:48:00 AM 6.5635 -76.0934 North  Level Estimated
Tue 07:49:00 AM 6.8839 -76.0757 North  Level Estimated
Tue 07:50:00 AM 7.2044 -76.0580 North  Level Estimated
Tue 07:51:00 AM 7.5248 -76.0403 North  Level Estimated
Tue 07:52:00 AM 7.8453 -76.0226 North  Level Estimated
Tue 07:53:00 AM 8.1657 -76.0048 North  Level Estimated
Tue 07:54:00 AM 8.4861 -75.9871 North  Level Estimated
Tue 07:55:00 AM 8.8064 -75.9693 North  Level Estimated
Tue 07:56:00 AM 9.1268 -75.9514 North  Level Estimated
Tue 07:57:00 AM 9.4472 -75.9335 North  Level Estimated
Tue 07:58:00 AM 9.7684 -75.9156 North  Level Estimated
Tue 07:59:00 AM 10.0895 -75.8976 North  Level Estimated
Tue 08:00:00 AM 10.4107 -75.8796 North  Level Estimated
Tue 08:00:06 AM 32.7467 -77.4989 North 468 539 35,000  Level Jacksonville Center
Tue 08:01:00 AM 10.7319 -75.8615 North  Level Estimated
Tue 08:02:00 AM 11.0531 -75.8434 North  Level Estimated
Tue 08:02:07 AM 32.9961 -77.4089 17° North 491 565 35,000  Level Washington Center
Tue 08:03:00 AM 11.3742 -75.8253 North  Level Estimated
Tue 08:03:05 AM 33.1261 -77.3594 18° North 486 559 35,000  Level Washington Center
Tue 08:04:00 AM 11.6954 -75.8071 North  Level Estimated
Tue 08:04:06 AM 33.2583 -77.3150 16° North 486 559 35,000  Level Washington Center
Tue 08:05:00 AM 12.0166 -75.7889 North  Level Estimated
Tue 08:05:07 AM 33.3861 -77.2706 16° North 503 579 35,000  Level Washington Center
Tue 08:06:04 AM 33.5161 -77.2208 18° North 498 573 35,000  Level Washington Center
Tue 08:07:06 AM 33.6461 -77.1733 17° North 509 586 35,000  Level Washington Center
Tue 08:08:07 AM 33.7781 -77.1236 17° North 484 557 35,000  Level Washington Center
Tue 08:09:05 AM 33.9081 -77.0758 17° North 504 580 35,000  Level Washington Center
Tue 08:10:05 AM 34.0400 -77.0281 17° North 493 567 35,000  Level Washington Center
Tue 08:11:06 AM 34.1681 -76.9800 17° North 493 567 35,000 -50 Level Washington Center
Tue 08:12:06 AM 34.2958 -76.9319 17° North 485 558 34,900  Descending Washington Center
Tue 08:13:07 AM 34.4236 -76.8861 16° North 485 558 35,000 50 Climbing Washington Center
Tue 08:14:07 AM 34.5514 -76.8378 17° North 474 545 35,000  Level Washington Center
Tue 08:15:07 AM 34.6769 -76.7917 17° North 474 545 35,000  Level Washington Center
Tue 08:16:05 AM 34.8047 -76.7456 17° North 474 545 35,000 -50 Level Washington Center
Tue 08:17:06 AM 34.9303 -76.6967 18° North 474 545 34,900  Descending Washington Center
Tue 08:18:07 AM 35.0539 -76.6500 17° North 474 545 35,000 50 Climbing Washington Center
Tue 08:19:05 AM 35.1647 -76.6058 18° North 469 540 35,000  Level Washington Center
Tue 08:20:06 AM 35.2967 -76.5592 16° North 464 534 35,000  Level Washington Center
Tue 08:21:07 AM 35.4306 -76.5047 18° North 469 540 35,000  Level Washington Center
Tue 08:26:28 AM 36.1290 -76.2560 18° North 480 552 35,000  Level FlightAware ADS-B
Tue 08:27:08 AM 36.2130 -76.2860 344° North 469 540 35,000  Level FlightAware ADS-B
Tue 08:27:53 AM 36.2880 -76.3530 324° Northwest 464 534 35,000  Level FlightAware ADS-B
Tue 08:28:34 AM 36.3590 -76.4220 322° Northwest 457 526 35,000  Level FlightAware ADS-B
Tue 08:29:13 AM 36.4290 -76.4780 327° Northwest 469 540 35,000  Level FlightAware ADS-B
Tue 08:29:58 AM 36.5240 -76.4810 359° North 470 541 35,000  Level FlightAware ADS-B
Tue 08:30:48 AM 36.6110 -76.4270 26° Northeast 473 544 35,000  Level FlightAware ADS-B
Tue 08:31:35 AM 36.7200 -76.3520 29° Northeast 482 555 35,000  Level FlightAware ADS-B
Tue 08:32:16 AM 36.7900 -76.3040 29° Northeast 482 555 35,000  Level FlightAware ADS-B
Tue 08:32:52 AM 36.8630 -76.2540 29° Northeast 35,000  Level FlightAware ADS-B
Tue 08:33:28 AM 36.9435 -76.1999 28° Northeast 482 555 35,000  Level FlightAware ADS-B
Tue 08:33:59 AM 37.0041 -76.1608 27° Northeast 483 556 35,000  Level FlightAware ADS-B
Tue 08:34:49 AM 37.1034 -76.0966 27° Northeast 482 555 35,000  Level FlightAware ADS-B
Tue 08:35:19 AM 37.1637 -76.0572 28° Northeast 484 557 35,000  Level FlightAware ADS-B
Tue 08:35:58 AM 37.2413 -76.0063 28° Northeast 485 558 35,000  Level FlightAware ADS-B
Tue 08:36:32 AM 37.3084 -75.9622 28° Northeast 487 560 35,000  Level FlightAware ADS-B
Tue 08:37:22 AM 37.3930 -75.9060 28° Northeast 487 560 35,000  Level FlightAware ADS-B
Tue 08:38:04 AM 37.4810 -75.8480 28° Northeast 488 562 35,000  Level FlightAware ADS-B
Tue 08:38:47 AM 37.5740 -75.7860 28° Northeast 490 564 35,000  Level FlightAware ADS-B
Tue 08:38:58 AM 37.6005 -75.7688 27° Northeast 491 565 35,000  Level FlightAware ADS-B
Tue 08:39:30 AM 37.6637 -75.7267 28° Northeast 492 566 35,000  Level FlightAware ADS-B
Tue 08:40:04 AM 37.7319 -75.6814 28° Northeast 492 566 35,000  Level FlightAware ADS-B
Tue 08:40:36 AM 37.7975 -75.6376 28° Northeast 493 567 35,000  Level FlightAware ADS-B
Tue 08:41:12 AM 37.8686 -75.5900 28° Northeast 493 567 35,000  Level FlightAware ADS-B
Tue 08:42:07 AM 37.9804 -75.5150 28° Northeast 493 567 35,000  Level FlightAware ADS-B
Tue 08:42:36 AM 38.0391 -75.4764 27° Northeast 493 567 35,000  Level FlightAware ADS-B
Tue 08:42:59 AM 38.0872 -75.4475 25° Northeast 493 567 35,000  Level FlightAware ADS-B
Tue 08:43:29 AM 38.1479 -75.4076 27° Northeast 493 567 35,000  Level FlightAware ADS-B
Tue 08:44:24 AM 38.2400 -75.3470 27° Northeast 486 559 35,000  Level FlightAware ADS-B
Tue 08:44:42 AM 38.2963 -75.3116 26° Northeast 494 568 35,000  Level FlightAware ADS-B
Tue 08:45:31 AM 38.3953 -75.2488 26° Northeast 493 567 35,000  Level FlightAware ADS-B
Tue 08:46:01 AM 38.4574 -75.2097 26° Northeast 493 567 35,000  Level FlightAware ADS-B
Tue 08:46:31 AM 38.5186 -75.1709 26° Northeast 492 566 35,000  Level FlightAware ADS-B
Tue 08:47:06 AM 38.5900 -75.1255 26° Northeast 492 566 35,000  Level FlightAware ADS-B
Tue 08:47:37 AM 38.6523 -75.0858 26° Northeast 488 562 35,000  Level FlightAware ADS-B
Tue 08:48:08 AM 38.7070 -75.0510 26° Northeast 488 562 35,000 -429 Level FlightAware ADS-B
Tue 08:48:33 AM 38.7651 -75.0135 27° Northeast 483 556 34,600 -2,419 Descending FlightAware ADS-B
Tue 08:49:10 AM 38.8405 -74.9651 27° Northeast 499 574 32,500 -2,647 Descending FlightAware ADS-B
Tue 08:49:41 AM 38.9031 -74.9246 27° Northeast 491 565 31,600 -1,839 Descending FlightAware ADS-B
Tue 08:50:12 AM 38.9659 -74.8840 27° Northeast 485 558 30,600 -1,818 Descending FlightAware ADS-B
Tue 08:50:47 AM 39.0355 -74.8389 27° Northeast 477 549 29,600 -1,759 Descending FlightAware ADS-B
Tue 08:51:10 AM 39.0800 -74.8082 28° Northeast 471 542 28,900 -1,964 Descending FlightAware ADS-B
Tue 08:51:42 AM 39.1354 -74.7570 36° Northeast 470 541 27,800 -1,935 Descending FlightAware ADS-B
Tue 08:52:12 AM 39.1855 -74.7039 39° Northeast 464 534 26,900 -1,770 Descending FlightAware ADS-B
Tue 08:52:43 AM 39.2363 -74.6488 40° Northeast 459 528 26,000 -1,742 Descending FlightAware ADS-B
Tue 08:53:14 AM 39.2862 -74.5942 40° Northeast 452 520 25,100 -1,619 Descending FlightAware ADS-B
Tue 08:53:46 AM 39.3362 -74.5395 40° Northeast 446 513 24,300 -1,619 Descending FlightAware ADS-B
Tue 08:54:17 AM 39.3847 -74.4868 40° Northeast 439 505 23,400 -1,742 Descending FlightAware ADS-B
Tue 08:54:48 AM 39.4337 -74.4335 40° Northeast 433 498 22,500 -1,594 Descending FlightAware ADS-B
Tue 08:55:21 AM 39.4830 -74.3798 40° Northeast 426 490 21,700 -1,500 Descending FlightAware ADS-B
Tue 08:55:52 AM 39.5292 -74.3290 40° Northeast 419 482 20,900 -1,524 Descending FlightAware ADS-B
Tue 08:56:24 AM 39.5754 -74.2785 40° Northeast 412 474 20,100 -1,548 Descending FlightAware ADS-B
Tue 08:56:54 AM 39.6192 -74.2304 40° Northeast 407 468 19,300 -1,355 Descending FlightAware ADS-B
Tue 08:57:26 AM 39.6640 -74.1811 40° Northeast 376 433 18,700 -1,200 Descending FlightAware ADS-B
Tue 08:58:04 AM 39.7132 -74.1270 40° Northeast 363 418 17,900 -1,478 Descending FlightAware ADS-B
Tue 08:58:35 AM 39.7521 -74.0840 40° Northeast 357 411 17,000 -1,818 Descending FlightAware ADS-B
Tue 08:59:10 AM 39.7952 -74.0364 40° Northeast 349 402 15,900 -1,701 Descending FlightAware ADS-B
Tue 08:59:42 AM 39.8342 -73.9943 40° Northeast 343 395 15,100 -1,529 Descending FlightAware ADS-B
Tue 09:00:01 AM 39.8597 -73.9730 33° Northeast 338 389 14,600 -1,846 Descending FlightAware ADS-B
Tue 09:00:34 AM 39.9049 -73.9402 29° Northeast 338 389 13,500 -1,760 Descending FlightAware ADS-B
Tue 09:01:16 AM 39.9613 -73.9003 28° Northeast 330 380 12,400 -1,440 Descending FlightAware ADS-B
Tue 09:01:49 AM 40.0051 -73.8687 29° Northeast 327 376 11,700 -1,075 Descending FlightAware ADS-B
Tue 09:02:23 AM 40.0503 -73.8356 29° Northeast 322 371 11,200 -448 Descending FlightAware ADS-B
Tue 09:02:56 AM 40.0932 -73.8043 29° Northeast 322 371 11,200 -462 Level FlightAware ADS-B
Tue 09:03:28 AM 40.1339 -73.7746 29° Northeast 321 369 10,700 -1,241 Descending FlightAware ADS-B
Tue 09:03:54 AM 40.1683 -73.7500 29° Northeast 317 365 10,000 -1,714 Descending FlightAware ADS-B
Tue 09:04:10 AM 40.1879 -73.7359 29° Northeast 313 360 9,500 -1,818 Descending FlightAware ADS-B
Tue 09:04:27 AM 40.2102 -73.7198 29° Northeast 308 354 9,000 -2,000 Descending FlightAware ADS-B
Tue 09:04:49 AM 40.2366 -73.7007 29° Northeast 304 350 8,200 -2,100 Descending FlightAware ADS-B
Tue 09:05:07 AM 40.2586 -73.6846 29° Northeast 299 344 7,600 -2,211 Descending FlightAware ADS-B
Tue 09:05:27 AM 40.2827 -73.6671 29° Northeast 296 341 6,800 -2,333 Descending FlightAware ADS-B
Tue 09:05:43 AM 40.3022 -73.6528 29° Northeast 295 339 6,200 -2,250 Descending FlightAware ADS-B
Tue 09:05:59 AM 40.3202 -73.6396 29° Northeast 295 339 5,600 -1,839 Descending FlightAware ADS-B
Tue 09:06:45 AM 40.3740 -73.6000 29° Northeast 293 337 4,300 -1,050 Descending FlightAware ADS-B
Tue 09:07:19 AM 40.4130 -73.5720 29° Northeast 267 307 4,200 -87 Descending FlightAware ADS-B
Tue 09:07:54 AM 40.4500 -73.5440 30° Northeast 267 307 4,200  Level FlightAware ADS-B
Tue 09:08:10 AM 40.4670 -73.5320 28° Northeast 268 308 4,200  Level FlightAware ADS-B
Tue 09:08:32 AM 40.4920 -73.5140 29° Northeast 268 308 4,200  Level FlightAware ADS-B
Tue 09:09:03 AM 40.5250 -73.4890 30° Northeast 269 310 4,200  Level FlightAware ADS-B
Tue 09:09:11 AM 40.5320 -73.4800 44° Northeast 271 312 4,200  Level FlightAware ADS-B
Tue 09:09:39 AM 40.5560 -73.4470 46° Northeast 273 314 4,200  Level FlightAware ADS-B
Tue 09:10:08 AM 40.5810 -73.4110 48° Northeast 273 314 4,200 -146 Level FlightAware ADS-B
Tue 09:10:20 AM 40.5940 -73.3980 37° Northeast 269 310 4,100 -692 Descending FlightAware ADS-B
Tue 09:10:34 AM 40.6100 -73.3930 13° North 260 299 3,900 -615 Descending FlightAware ADS-B
Tue 09:10:59 AM 40.6350 -73.3970 353° North 244 281 3,700 -643 Descending FlightAware ADS-B
Tue 09:11:30 AM 40.6710 -73.4060 349° North 225 259 3,300 -508 Descending FlightAware ADS-B
Tue 09:11:58 AM 40.6980 -73.4170 343° North 216 249 3,200  Descending FlightAware ADS-B
Tue 09:12:09 AM 40.7080 -73.4210 343° North 211 243 3,300  Climbing FlightAware ADS-B
Tue 09:12:33 AM 40.7300 -73.4300 343° North 208 239 3,200 -85 Descending FlightAware ADS-B
Tue 09:13:20 AM 40.7590 -73.4680 315° West 189 217 3,200 -92 Level FlightAware ADS-B
Tue 09:13:38 AM 40.7650 -73.4870 293° West 179 206 3,100 -783 Descending FlightAware ADS-B
Tue 09:14:06 AM 40.7690 -73.5150 281° West 180 207 2,600 -982 Descending FlightAware ADS-B
Tue 09:14:33 AM 40.7730 -73.5450 280° West 184 212 2,200 -511 Descending FlightAware ADS-B
Tue 09:14:53 AM 40.7760 -73.5670 280° West 184 212 2,200  Level FlightAware ADS-B
Tue 09:15:15 AM 40.7710 -73.5900 254° West 169 194 2,200  Level FlightAware ADS-B
Tue 09:15:43 AM 40.7620 -73.6140 244° Southwest 162 186 2,200 109 Level FlightAware ADS-B
Tue 09:16:10 AM 40.7510 -73.6360 237° Southwest 159 183 2,300  Climbing FlightAware ADS-B
Tue 09:16:27 AM 40.7420 -73.6480 225° Southwest 153 176 2,200 -214 Descending FlightAware ADS-B
Tue 09:16:38 AM 40.7360 -73.6550 221° Southwest 154 177 2,200  Level FlightAware ADS-B
Tue 09:17:06 AM 40.7200 -73.6710 217° Southwest 157 181 2,200 -421 Level FlightAware ADS-B
Tue 09:17:35 AM 40.7030 -73.6870 216° Southwest 150 173 1,800 -818 Descending FlightAware ADS-B
Tue 09:17:50 AM 40.6950 -73.6950 217° Southwest 143 165 1,600 -750 Descending FlightAware ADS-B
Tue 09:18:15 AM 40.6840 -73.7090 224° Southwest 137 158 1,300 -737 Descending FlightAware ADS-B
Tue 09:18:47 AM 40.6720 -73.7310 234° Southwest 139 160 900 -700 Descending FlightAware ADS-B
Tue 09:19:15 AM 40.6570 -73.7460 217° Southwest 143 165 600 -643 Descending FlightAware ADS-B
Tue 09:19:43 AM 40.6410 -73.7580 210° Southwest 143 165 300 -643 Descending FlightAware ADS-B
Tue 09:20:10 AM 40.6310 -73.7660 211° Southwest 43 49 -667 Descending FlightAware ADS-B
Tue 09:20:22 AM 40.6300 -73.7670 217° Southwest 29 33  Level FlightAware ADS-B
Tue 09:20:36 AM 40.6290 -73.7690 237° Southwest 17 20  Level FlightAware ADS-B
Tue 09:20:52 AM 40.6300 -73.7700 323° Northwest 16 18  Level FlightAware ADS-B
Tue 09:21:20 AM 40.6320 -73.7700 360° North 17 20  Level FlightAware ADS-B
Tue 09:21:32 AM 40.6320 -73.7690 90° East 19 22  Level FlightAware ADS-B
Tue 09:22:00 AM 40.6340 -73.7700 339° North 28 32  Level FlightAware ADS-B
Tue 09:22:31 AM 40.6350 -73.7720 303° West 34 39  Level FlightAware ADS-B
Tue 09:22:55 AM 40.6350 -73.7740 270° West 23 26  Level FlightAware ADS-B
Tue 09:23:20 AM 40.6360 -73.7750 323° Northwest 27 31  Level FlightAware ADS-B
Tue 09:23:41 AM 40.6370 -73.7760 323° Northwest 32 37  Level FlightAware ADS-B
Tue 09:23:53 AM 40.6370 -73.7770 270° West 25 29  Level FlightAware ADS-B
Tue 09:24:09 AM 40.6360 -73.7770 180° South 25 29  Level FlightAware ADS-B
Tue 09:24:33 AM 40.6350 -73.7780 217° Southwest 30 35  Level FlightAware ADS-B
Tue 09:25:02 AM 40.6340 -73.7800 237° Southwest 15 17  Level FlightAware ADS-B
Tue 09:25:35 AM 40.6350 -73.7830 294° West 16 18  Level FlightAware ADS-B
Tue 09:25:53 AM 40.6360 -73.7840 323° Northwest 23 26  Level FlightAware ADS-B
Tue 09:26:13 AM 40.6360 -73.7850 270° West 29 33  Level FlightAware ADS-B
Tue 09:28:00 AM 40.6398 -73.7789 348° North  Level Estimated

Login

Don't have an account? Register now (free) for customized features, flight alerts, and more!